sensor_id;sensor_type;location;lat;lon;timestamp;pressure;altitude;pressure_sealevel;temperature;humidity
818;BME280;391;51.052;6.954;2023-06-10T00:01:15;100713.16;;;24.89;44.99
818;BME280;391;51.052;6.954;2023-06-10T00:03:19;100708.56;;;24.94;44.82
818;BME280;391;51.052;6.954;2023-06-10T00:05:25;100711.25;;;24.92;44.96
818;BME280;391;51.052;6.954;2023-06-10T00:07:32;100705.88;;;24.94;45.11
818;BME280;391;51.052;6.954;2023-06-10T00:09:35;100707.28;;;25.05;44.94
818;BME280;391;51.052;6.954;2023-06-10T00:11:39;100706.16;;;25.14;44.72
818;BME280;391;51.052;6.954;2023-06-10T00:13:43;100712.53;;;25.08;44.79
818;BME280;391;51.052;6.954;2023-06-10T00:15:46;100702.34;;;24.93;45.15
818;BME280;391;51.052;6.954;2023-06-10T00:17:51;100707.00;;;24.87;45.20
818;BME280;391;51.052;6.954;2023-06-10T00:19:57;100707.06;;;24.84;45.16
818;BME280;391;51.052;6.954;2023-06-10T00:22:00;100712.53;;;24.79;45.33
818;BME280;391;51.052;6.954;2023-06-10T00:24:05;100718.13;;;24.70;45.40
818;BME280;391;51.052;6.954;2023-06-10T00:26:09;100706.91;;;24.59;45.66
818;BME280;391;51.052;6.954;2023-06-10T00:28:13;100716.91;;;24.51;45.91
818;BME280;391;51.052;6.954;2023-06-10T00:30:16;100711.44;;;24.55;45.81
818;BME280;391;51.052;6.954;2023-06-10T00:32:20;100718.13;;;24.70;45.90
818;BME280;391;51.052;6.954;2023-06-10T00:34:24;100710.78;;;24.78;45.61
818;BME280;391;51.052;6.954;2023-06-10T00:36:28;100717.63;;;24.88;45.72
818;BME280;391;51.052;6.954;2023-06-10T00:38:32;100712.09;;;24.94;45.38
818;BME280;391;51.052;6.954;2023-06-10T00:40:39;100721.25;;;24.86;45.48
818;BME280;391;51.052;6.954;2023-06-10T00:42:43;100707.78;;;24.90;45.57
818;BME280;391;51.052;6.954;2023-06-10T00:44:47;100710.31;;;24.95;45.80
818;BME280;391;51.052;6.954;2023-06-10T00:46:50;100716.44;;;24.98;45.56
818;BME280;391;51.052;6.954;2023-06-10T00:48:57;100722.53;;;25.02;45.33
818;BME280;391;51.052;6.954;2023-06-10T00:51:04;100717.25;;;25.00;45.53
818;BME280;391;51.052;6.954;2023-06-10T00:53:08;100722.59;;;25.00;45.99
818;BME280;391;51.052;6.954;2023-06-10T00:55:12;100722.59;;;25.00;45.92
818;BME280;391;51.052;6.954;2023-06-10T00:57:16;100725.44;;;24.94;45.77
818;BME280;391;51.052;6.954;2023-06-10T00:59:20;100719.25;;;24.92;46.30
818;BME280;391;51.052;6.954;2023-06-10T01:01:23;100722.97;;;24.88;46.49
818;BME280;391;51.052;6.954;2023-06-10T01:03:29;100717.66;;;24.87;46.18
818;BME280;391;51.052;6.954;2023-06-10T01:05:32;100724.00;;;24.83;46.24
818;BME280;391;51.052;6.954;2023-06-10T01:07:56;100720.63;;;24.76;46.47
818;BME280;391;51.052;6.954;2023-06-10T01:10:05;100612.63;;;24.00;46.37
818;BME280;391;51.052;6.954;2023-06-10T01:12:18;100724.56;;;24.63;46.79
818;BME280;391;51.052;6.954;2023-06-10T01:14:22;100728.94;;;24.65;46.55
818;BME280;391;51.052;6.954;2023-06-10T01:16:28;100713.91;;;24.63;46.75
818;BME280;391;51.052;6.954;2023-06-10T01:18:31;100731.53;;;24.67;46.41
818;BME280;391;51.052;6.954;2023-06-10T01:20:37;100726.28;;;24.65;46.81
818;BME280;391;51.052;6.954;2023-06-10T01:22:43;100727.31;;;24.60;47.02
818;BME280;391;51.052;6.954;2023-06-10T01:24:47;100689.00;;;24.33;46.82
818;BME280;391;51.052;6.954;2023-06-10T01:26:54;100731.09;;;24.53;47.13
818;BME280;391;51.052;6.954;2023-06-10T01:29:04;100724.09;;;24.49;47.40
818;BME280;391;51.052;6.954;2023-06-10T01:31:15;100729.50;;;24.46;47.44
818;BME280;391;51.052;6.954;2023-06-10T01:33:25;100672.72;;;24.10;47.65
818;BME280;391;51.052;6.954;2023-06-10T01:35:30;100719.88;;;24.40;47.43
818;BME280;391;51.052;6.954;2023-06-10T01:37:34;100731.53;;;24.38;47.72
818;BME280;391;51.052;6.954;2023-06-10T01:39:41;100717.63;;;24.25;48.06
818;BME280;391;51.052;6.954;2023-06-10T01:41:45;100723.91;;;24.22;48.37
818;BME280;391;51.052;6.954;2023-06-10T01:43:49;100722.13;;;24.25;48.29
818;BME280;391;51.052;6.954;2023-06-10T01:45:52;100723.03;;;24.22;48.43
818;BME280;391;51.052;6.954;2023-06-10T01:47:55;100720.47;;;24.19;48.77
818;BME280;391;51.052;6.954;2023-06-10T01:50:01;100721.56;;;24.10;48.72
818;BME280;391;51.052;6.954;2023-06-10T01:52:05;100726.94;;;24.09;48.96
818;BME280;391;51.052;6.954;2023-06-10T01:54:09;100725.19;;;24.08;48.93
818;BME280;391;51.052;6.954;2023-06-10T01:56:15;100722.63;;;24.03;49.16
818;BME280;391;51.052;6.954;2023-06-10T01:58:21;100721.75;;;24.03;49.20
818;BME280;391;51.052;6.954;2023-06-10T02:00:24;100725.34;;;24.02;49.40
818;BME280;391;51.052;6.954;2023-06-10T02:02:28;100724.75;;;23.91;49.65
818;BME280;391;51.052;6.954;2023-06-10T02:04:32;100728.28;;;23.91;49.55
818;BME280;391;51.052;6.954;2023-06-10T02:06:37;100726.44;;;23.93;49.45
818;BME280;391;51.052;6.954;2023-06-10T02:08:40;100724.72;;;23.92;49.61
818;BME280;391;51.052;6.954;2023-06-10T02:10:44;100694.22;;;23.70;49.61
818;BME280;391;51.052;6.954;2023-06-10T02:12:49;100725.81;;;23.84;49.88
818;BME280;391;51.052;6.954;2023-06-10T02:14:53;100706.69;;;23.68;50.21
818;BME280;391;51.052;6.954;2023-06-10T02:16:57;100738.38;;;23.79;49.78
818;BME280;391;51.052;6.954;2023-06-10T02:19:01;100732.25;;;23.75;50.08
818;BME280;391;51.052;6.954;2023-06-10T02:21:05;100735.97;;;23.69;50.45
818;BME280;391;51.052;6.954;2023-06-10T02:23:08;100739.56;;;23.67;50.47
818;BME280;391;51.052;6.954;2023-06-10T02:25:12;100728.03;;;23.66;50.50
818;BME280;391;51.052;6.954;2023-06-10T02:27:15;100733.56;;;23.59;50.74
818;BME280;391;51.052;6.954;2023-06-10T02:29:20;100739.84;;;23.55;51.01
818;BME280;391;51.052;6.954;2023-06-10T02:31:24;100742.72;;;23.47;51.17
818;BME280;391;51.052;6.954;2023-06-10T02:33:29;100736.50;;;23.48;51.22
818;BME280;391;51.052;6.954;2023-06-10T02:35:32;100740.06;;;23.46;51.17
818;BME280;391;51.052;6.954;2023-06-10T02:37:35;100741.97;;;23.39;51.35
818;BME280;391;51.052;6.954;2023-06-10T02:39:39;100749.09;;;23.40;51.56
818;BME280;391;51.052;6.954;2023-06-10T02:41:45;100744.78;;;23.33;51.53
818;BME280;391;51.052;6.954;2023-06-10T02:43:50;100744.03;;;23.28;51.72
818;BME280;391;51.052;6.954;2023-06-10T02:45:55;100740.63;;;23.22;51.98
818;BME280;391;51.052;6.954;2023-06-10T02:47:59;100746.09;;;23.15;52.19
818;BME280;391;51.052;6.954;2023-06-10T02:50:03;100731.09;;;23.11;52.31
818;BME280;391;51.052;6.954;2023-06-10T02:52:12;100742.69;;;23.09;52.31
818;BME280;391;51.052;6.954;2023-06-10T02:54:15;100741.19;;;22.97;52.55
818;BME280;391;51.052;6.954;2023-06-10T02:56:19;100748.72;;;22.77;53.00
818;BME280;391;51.052;6.954;2023-06-10T02:58:24;100750.56;;;22.74;53.54
818;BME280;391;51.052;6.954;2023-06-10T03:00:29;100754.84;;;22.79;53.18
818;BME280;391;51.052;6.954;2023-06-10T03:02:34;100756.69;;;22.77;53.38
818;BME280;391;51.052;6.954;2023-06-10T03:04:39;100754.97;;;22.73;53.74
818;BME280;391;51.052;6.954;2023-06-10T03:06:48;100753.22;;;22.72;53.83
818;BME280;391;51.052;6.954;2023-06-10T03:08:57;100751.50;;;22.70;53.75
818;BME280;391;51.052;6.954;2023-06-10T03:11:00;100747.31;;;22.56;53.77
818;BME280;391;51.052;6.954;2023-06-10T03:13:05;100745.16;;;22.32;54.37
818;BME280;391;51.052;6.954;2023-06-10T03:15:09;100740.91;;;22.24;54.52
818;BME280;391;51.052;6.954;2023-06-10T03:17:13;100744.44;;;22.23;54.56
818;BME280;391;51.052;6.954;2023-06-10T03:19:19;100740.09;;;22.19;54.60
818;BME280;391;51.052;6.954;2023-06-10T03:21:25;100740.97;;;22.19;54.66
818;BME280;391;51.052;6.954;2023-06-10T03:23:31;100746.31;;;22.18;54.79
818;BME280;391;51.052;6.954;2023-06-10T03:25:35;100738.28;;;22.21;55.02
818;BME280;391;51.052;6.954;2023-06-10T03:27:39;100746.16;;;22.27;55.34
818;BME280;391;51.052;6.954;2023-06-10T03:29:43;100739.84;;;22.31;55.21
818;BME280;391;51.052;6.954;2023-06-10T03:31:47;100754.00;;;22.33;54.89
818;BME280;391;51.052;6.954;2023-06-10T03:33:51;100753.03;;;22.37;54.96
818;BME280;391;51.052;6.954;2023-06-10T03:35:56;100755.84;;;22.28;55.45
818;BME280;391;51.052;6.954;2023-06-10T03:38:00;100756.78;;;22.25;55.54
818;BME280;391;51.052;6.954;2023-06-10T03:40:05;100762.91;;;22.30;54.95
818;BME280;391;51.052;6.954;2023-06-10T03:42:10;100757.66;;;22.27;55.29
818;BME280;391;51.052;6.954;2023-06-10T03:44:13;100762.09;;;22.25;55.21
818;BME280;391;51.052;6.954;2023-06-10T03:46:17;100751.53;;;22.22;55.51
818;BME280;391;51.052;6.954;2023-06-10T03:48:21;100755.09;;;22.21;55.64
818;BME280;391;51.052;6.954;2023-06-10T03:50:27;100761.31;;;22.20;55.34
818;BME280;391;51.052;6.954;2023-06-10T03:52:32;100761.31;;;22.20;55.52
818;BME280;391;51.052;6.954;2023-06-10T03:54:35;100761.44;;;22.14;56.07
818;BME280;391;51.052;6.954;2023-06-10T03:56:39;100761.50;;;22.11;56.24
818;BME280;391;51.052;6.954;2023-06-10T03:58:42;100761.44;;;22.14;55.89
818;BME280;391;51.052;6.954;2023-06-10T04:00:49;100756.06;;;22.17;55.73
818;BME280;391;51.052;6.954;2023-06-10T04:02:52;100756.84;;;22.24;56.00
818;BME280;391;51.052;6.954;2023-06-10T04:05:10;100762.91;;;22.30;55.60
818;BME280;391;51.052;6.954;2023-06-10T04:07:14;100756.72;;;22.30;55.43
818;BME280;391;51.052;6.954;2023-06-10T04:09:19;100759.44;;;22.25;55.41
818;BME280;391;51.052;6.954;2023-06-10T04:11:22;100755.25;;;22.13;55.75
818;BME280;391;51.052;6.954;2023-06-10T04:13:26;100767.59;;;22.14;56.19
818;BME280;391;51.052;6.954;2023-06-10T04:15:36;100759.63;;;22.16;55.81
818;BME280;391;51.052;6.954;2023-06-10T04:17:45;100767.66;;;22.11;55.99
818;BME280;391;51.052;6.954;2023-06-10T04:19:49;100765.31;;;21.93;56.69
818;BME280;391;51.052;6.954;2023-06-10T04:21:54;100769.69;;;21.97;56.99
818;BME280;391;51.052;6.954;2023-06-10T04:23:57;100764.16;;;22.09;56.50
818;BME280;391;51.052;6.954;2023-06-10T04:26:02;100774.66;;;22.17;56.74
818;BME280;391;51.052;6.954;2023-06-10T04:28:07;100781.63;;;22.23;56.51
818;BME280;391;51.052;6.954;2023-06-10T04:30:13;100784.31;;;22.21;56.55
818;BME280;391;51.052;6.954;2023-06-10T04:32:16;100788.91;;;22.11;56.91
818;BME280;391;51.052;6.954;2023-06-10T04:34:20;100787.06;;;22.15;57.24
818;BME280;391;51.052;6.954;2023-06-10T04:36:24;100784.31;;;22.21;56.74
818;BME280;391;51.052;6.954;2023-06-10T04:38:27;100790.47;;;22.23;57.05
818;BME280;391;51.052;6.954;2023-06-10T04:40:34;100789.47;;;22.30;57.29
818;BME280;391;51.052;6.954;2023-06-10T04:42:40;100784.94;;;22.37;56.71
818;BME280;391;51.052;6.954;2023-06-10T04:44:43;100781.53;;;22.29;57.35
818;BME280;391;51.052;6.954;2023-06-10T04:46:47;100778.19;;;22.18;57.82
818;BME280;391;51.052;6.954;2023-06-10T04:48:51;100784.31;;;22.21;57.69
818;BME280;391;51.052;6.954;2023-06-10T04:50:58;100777.44;;;22.09;58.00
818;BME280;391;51.052;6.954;2023-06-10T04:53:02;100773.25;;;21.96;58.62
818;BME280;391;51.052;6.954;2023-06-10T04:55:07;100777.50;;;22.05;58.54
818;BME280;391;51.052;6.954;2023-06-10T04:57:11;100786.47;;;21.99;58.96
818;BME280;391;51.052;6.954;2023-06-10T04:59:16;100780.09;;;22.09;59.13
818;BME280;391;51.052;6.954;2023-06-10T05:01:19;100779.94;;;22.19;58.82
818;BME280;391;51.052;6.954;2023-06-10T05:03:22;100788.00;;;22.12;59.24
818;BME280;391;51.052;6.954;2023-06-10T05:05:26;100783.41;;;22.24;59.03
818;BME280;391;51.052;6.954;2023-06-10T05:07:29;100783.50;;;22.18;59.45
818;BME280;391;51.052;6.954;2023-06-10T05:09:33;100784.41;;;22.17;59.78
818;BME280;391;51.052;6.954;2023-06-10T05:11:36;100788.78;;;22.19;59.97
818;BME280;391;51.052;6.954;2023-06-10T05:13:41;100792.06;;;22.33;59.94
818;BME280;391;51.052;6.954;2023-06-10T05:15:47;100785.88;;;22.33;59.56
818;BME280;391;51.052;6.954;2023-06-10T05:17:51;100787.72;;;22.28;59.97
818;BME280;391;51.052;6.954;2023-06-10T05:19:55;100793.69;;;22.42;60.07
818;BME280;391;51.052;6.954;2023-06-10T05:21:58;100789.06;;;22.50;59.91
818;BME280;391;51.052;6.954;2023-06-10T05:24:02;100796.28;;;22.43;59.70
818;BME280;391;51.052;6.954;2023-06-10T05:26:05;100792.56;;;22.53;60.24
818;BME280;391;51.052;6.954;2023-06-10T05:28:09;100792.34;;;22.67;59.73
818;BME280;391;51.052;6.954;2023-06-10T05:30:16;100798.25;;;22.81;59.38
818;BME280;391;51.052;6.954;2023-06-10T05:32:22;100797.13;;;22.91;58.73
818;BME280;391;51.052;6.954;2023-06-10T05:34:25;100793.44;;;22.98;58.62
818;BME280;391;51.052;6.954;2023-06-10T05:36:29;100796.78;;;23.08;58.65
818;BME280;391;51.052;6.954;2023-06-10T05:38:32;100794.88;;;23.16;58.24
818;BME280;391;51.052;6.954;2023-06-10T05:40:35;100788.59;;;23.18;58.13
818;BME280;391;51.052;6.954;2023-06-10T05:42:39;100789.34;;;23.24;57.87
818;BME280;391;51.052;6.954;2023-06-10T05:44:42;100796.31;;;23.31;57.56
818;BME280;391;51.052;6.954;2023-06-10T05:46:46;100799.72;;;23.36;57.16
818;BME280;391;51.052;6.954;2023-06-10T05:48:51;100796.97;;;23.42;57.08
818;BME280;391;51.052;6.954;2023-06-10T05:50:54;100801.22;;;23.49;56.51
818;BME280;391;51.052;6.954;2023-06-10T05:52:58;100801.97;;;23.55;56.16
818;BME280;391;51.052;6.954;2023-06-10T05:55:01;100799.22;;;23.60;55.78
818;BME280;391;51.052;6.954;2023-06-10T05:57:05;100711.75;;;23.05;55.51
818;BME280;391;51.052;6.954;2023-06-10T05:59:09;100811.53;;;23.64;55.30
818;BME280;391;51.052;6.954;2023-06-10T06:01:12;100807.84;;;23.69;54.77
818;BME280;391;51.052;6.954;2023-06-10T06:03:17;100762.31;;;23.45;55.32
818;BME280;391;51.052;6.954;2023-06-10T06:05:22;100812.00;;;23.81;55.04
818;BME280;391;51.052;6.954;2023-06-10T06:07:26;100808.59;;;23.76;54.31
818;BME280;391;51.052;6.954;2023-06-10T06:09:29;100810.53;;;23.68;53.92
818;BME280;391;51.052;6.954;2023-06-10T06:11:34;100815.00;;;23.67;53.60
818;BME280;391;51.052;6.954;2023-06-10T06:13:37;100812.38;;;23.66;53.36
818;BME280;391;51.052;6.954;2023-06-10T06:15:41;100813.94;;;23.75;53.26
818;BME280;391;51.052;6.954;2023-06-10T06:17:44;100814.88;;;23.74;52.51
818;BME280;391;51.052;6.954;2023-06-10T06:19:48;100810.38;;;23.74;52.58
818;BME280;391;51.052;6.954;2023-06-10T06:21:52;100815.59;;;23.80;52.40
818;BME280;391;51.052;6.954;2023-06-10T06:23:56;100807.47;;;23.85;51.90
818;BME280;391;51.052;6.954;2023-06-10T06:26:00;100817.31;;;23.83;51.52
818;BME280;391;51.052;6.954;2023-06-10T06:28:04;100818.03;;;23.89;51.13
818;BME280;391;51.052;6.954;2023-06-10T06:30:08;100813.53;;;23.91;50.75
818;BME280;391;51.052;6.954;2023-06-10T06:32:12;100812.66;;;23.91;50.51
818;BME280;391;51.052;6.954;2023-06-10T06:34:15;100811.56;;;23.99;50.37
818;BME280;391;51.052;6.954;2023-06-10T06:36:18;100822.00;;;24.08;49.31
818;BME280;391;51.052;6.954;2023-06-10T06:38:23;100828.31;;;24.04;49.04
818;BME280;391;51.052;6.954;2023-06-10T06:40:27;100822.09;;;24.04;49.23
818;BME280;391;51.052;6.954;2023-06-10T06:42:30;100819.28;;;24.10;48.89
818;BME280;391;51.052;6.954;2023-06-10T06:44:46;100823.53;;;24.18;48.47
818;BME280;391;51.052;6.954;2023-06-10T06:46:49;100818.06;;;24.25;48.03
818;BME280;391;51.052;6.954;2023-06-10T06:48:53;100825.91;;;24.29;47.80
818;BME280;391;51.052;6.954;2023-06-10T06:50:56;100835.69;;;24.30;47.72
818;BME280;391;51.052;6.954;2023-06-10T06:53:00;100831.31;;;24.26;48.28
818;BME280;391;51.052;6.954;2023-06-10T06:55:06;100827.78;;;24.26;48.04
818;BME280;391;51.052;6.954;2023-06-10T06:57:10;100826.88;;;24.27;49.13
818;BME280;391;51.052;6.954;2023-06-10T06:59:13;100823.47;;;24.21;47.43
818;BME280;391;51.052;6.954;2023-06-10T07:01:18;100827.78;;;24.26;46.76
818;BME280;391;51.052;6.954;2023-06-10T07:03:22;100826.78;;;24.31;46.53
818;BME280;391;51.052;6.954;2023-06-10T07:05:25;100832.81;;;24.38;45.99
818;BME280;391;51.052;6.954;2023-06-10T07:07:29;100835.44;;;24.39;46.04
818;BME280;391;51.052;6.954;2023-06-10T07:09:33;100827.19;;;24.48;45.68
818;BME280;391;51.052;6.954;2023-06-10T07:11:38;100832.66;;;24.44;45.34
818;BME280;391;51.052;6.954;2023-06-10T07:13:41;100830.00;;;24.42;44.98
818;BME280;391;51.052;6.954;2023-06-10T07:15:44;100833.38;;;24.50;44.90
818;BME280;391;51.052;6.954;2023-06-10T07:17:48;100831.28;;;24.61;45.13
818;BME280;391;51.052;6.954;2023-06-10T07:19:51;100834.91;;;24.59;44.86
818;BME280;391;51.052;6.954;2023-06-10T07:21:55;100836.44;;;24.67;44.94
818;BME280;391;51.052;6.954;2023-06-10T07:23:58;100834.47;;;24.74;44.82
818;BME280;391;51.052;6.954;2023-06-10T07:26:02;100836.81;;;24.88;44.69
818;BME280;391;51.052;6.954;2023-06-10T07:28:06;100840.16;;;24.94;44.96
818;BME280;391;51.052;6.954;2023-06-10T07:30:11;100839.13;;;25.00;44.35
818;BME280;391;51.052;6.954;2023-06-10T07:32:15;100839.84;;;25.05;44.53
818;BME280;391;51.052;6.954;2023-06-10T07:34:20;100837.94;;;25.10;44.71
818;BME280;391;51.052;6.954;2023-06-10T07:36:24;100838.56;;;25.18;44.54
818;BME280;391;51.052;6.954;2023-06-10T07:38:29;100833.00;;;25.25;44.74
818;BME280;391;51.052;6.954;2023-06-10T07:40:32;100830.38;;;25.24;44.13
818;BME280;391;51.052;6.954;2023-06-10T07:42:36;100834.63;;;25.31;43.61
818;BME280;391;51.052;6.954;2023-06-10T07:44:41;100832.91;;;25.28;43.17
818;BME280;391;51.052;6.954;2023-06-10T07:46:45;100831.72;;;25.39;43.54
818;BME280;391;51.052;6.954;2023-06-10T07:48:48;100832.28;;;25.50;43.65
818;BME280;391;51.052;6.954;2023-06-10T07:50:52;100828.59;;;25.54;42.82
818;BME280;391;51.052;6.954;2023-06-10T07:52:55;100832.06;;;25.57;42.68
818;BME280;391;51.052;6.954;2023-06-10T07:54:59;100828.41;;;25.60;43.08
818;BME280;391;51.052;6.954;2023-06-10T07:57:03;100828.31;;;25.63;43.00
818;BME280;391;51.052;6.954;2023-06-10T07:59:06;100835.31;;;25.67;42.92
818;BME280;391;51.052;6.954;2023-06-10T08:01:11;100838.00;;;25.67;42.28
818;BME280;391;51.052;6.954;2023-06-10T08:03:15;100828.13;;;25.69;42.41
818;BME280;391;51.052;6.954;2023-06-10T08:05:18;100832.56;;;25.70;42.15
818;BME280;391;51.052;6.954;2023-06-10T08:07:22;100823.72;;;25.68;41.92
818;BME280;391;51.052;6.954;2023-06-10T08:09:25;100840.47;;;25.73;42.28
818;BME280;391;51.052;6.954;2023-06-10T08:11:29;100830.56;;;25.76;42.22
818;BME280;391;51.052;6.954;2023-06-10T08:13:33;100823.31;;;25.80;41.77
818;BME280;391;51.052;6.954;2023-06-10T08:15:36;100826.72;;;25.85;41.91
818;BME280;391;51.052;6.954;2023-06-10T08:17:41;100841.78;;;25.88;41.91
818;BME280;391;51.052;6.954;2023-06-10T08:19:45;100835.81;;;25.79;42.01
818;BME280;391;51.052;6.954;2023-06-10T08:21:48;100830.13;;;25.90;41.63
818;BME280;391;51.052;6.954;2023-06-10T08:23:52;100832.63;;;25.95;41.77
818;BME280;391;51.052;6.954;2023-06-10T08:25:56;100828.81;;;26.03;41.30
818;BME280;391;51.052;6.954;2023-06-10T08:28:00;100832.94;;;26.12;41.92
818;BME280;391;51.052;6.954;2023-06-10T08:30:04;100828.22;;;26.21;41.65
818;BME280;391;51.052;6.954;2023-06-10T08:32:08;100836.47;;;26.40;41.75
818;BME280;391;51.052;6.954;2023-06-10T08:34:13;100836.97;;;26.51;41.76
818;BME280;391;51.052;6.954;2023-06-10T08:36:16;100842.16;;;26.56;41.05
818;BME280;391;51.052;6.954;2023-06-10T08:38:19;100825.28;;;26.54;41.00
818;BME280;391;51.052;6.954;2023-06-10T08:40:23;100831.31;;;26.60;41.11
818;BME280;391;51.052;6.954;2023-06-10T08:42:28;100834.75;;;26.64;41.63
818;BME280;391;51.052;6.954;2023-06-10T08:44:37;100832.72;;;26.70;41.79
818;BME280;391;51.052;6.954;2023-06-10T08:46:43;100835.31;;;26.72;41.44
818;BME280;391;51.052;6.954;2023-06-10T08:48:48;100797.50;;;26.58;41.37
818;BME280;391;51.052;6.954;2023-06-10T08:50:58;100832.19;;;26.86;41.34
818;BME280;391;51.052;6.954;2023-06-10T08:53:02;100823.88;;;26.93;40.54
818;BME280;391;51.052;6.954;2023-06-10T08:55:11;100827.19;;;27.00;40.63
818;BME280;391;51.052;6.954;2023-06-10T08:57:17;100835.97;;;27.03;40.28
818;BME280;391;51.052;6.954;2023-06-10T08:59:23;100826.34;;;26.99;40.53
818;BME280;391;51.052;6.954;2023-06-10T09:01:29;100832.63;;;26.98;40.79
818;BME280;391;51.052;6.954;2023-06-10T09:03:33;100824.50;;;27.00;40.74
818;BME280;391;51.052;6.954;2023-06-10T09:05:37;100834.25;;;27.02;40.47
818;BME280;391;51.052;6.954;2023-06-10T09:07:43;100830.50;;;27.06;39.84
818;BME280;391;51.052;6.954;2023-06-10T09:09:48;100832.16;;;27.10;39.98
818;BME280;391;51.052;6.954;2023-06-10T09:11:52;100825.81;;;27.13;40.94
818;BME280;391;51.052;6.954;2023-06-10T09:13:55;100826.63;;;26.92;41.45
818;BME280;391;51.052;6.954;2023-06-10T09:15:58;100831.28;;;27.10;41.27
818;BME280;391;51.052;6.954;2023-06-10T09:18:05;100829.59;;;27.30;40.71
818;BME280;391;51.052;6.954;2023-06-10T09:20:09;100826.56;;;27.40;40.10
818;BME280;391;51.052;6.954;2023-06-10T09:22:14;100826.09;;;27.52;40.25
818;BME280;391;51.052;6.954;2023-06-10T09:24:20;100822.31;;;27.57;39.68
818;BME280;391;51.052;6.954;2023-06-10T09:26:28;100821.78;;;27.48;40.11
818;BME280;391;51.052;6.954;2023-06-10T09:28:34;100827.66;;;27.57;40.23
818;BME280;391;51.052;6.954;2023-06-10T09:30:37;100825.50;;;27.67;40.24
818;BME280;391;51.052;6.954;2023-06-10T09:32:41;100783.38;;;27.49;39.88
818;BME280;391;51.052;6.954;2023-06-10T09:34:45;100826.94;;;27.75;39.76
818;BME280;391;51.052;6.954;2023-06-10T09:36:49;100830.03;;;27.65;40.00
818;BME280;391;51.052;6.954;2023-06-10T09:38:52;100813.84;;;27.68;40.12
818;BME280;391;51.052;6.954;2023-06-10T09:41:00;100704.94;;;27.22;39.99
818;BME280;391;51.052;6.954;2023-06-10T09:43:05;100779.75;;;27.71;39.56
818;BME280;391;51.052;6.954;2023-06-10T09:45:09;100816.72;;;28.07;39.63
818;BME280;391;51.052;6.954;2023-06-10T09:47:19;100815.34;;;28.18;39.21
818;BME280;391;51.052;6.954;2023-06-10T09:49:23;100814.81;;;28.30;39.39
818;BME280;391;51.052;6.954;2023-06-10T09:51:26;100809.84;;;28.42;39.23
818;BME280;391;51.052;6.954;2023-06-10T09:53:33;100810.25;;;28.53;39.02
818;BME280;391;51.052;6.954;2023-06-10T09:55:37;100809.41;;;28.52;38.64
818;BME280;391;51.052;6.954;2023-06-10T09:57:42;100815.22;;;28.62;38.58
818;BME280;391;51.052;6.954;2023-06-10T09:59:52;100814.28;;;28.63;37.77
818;BME280;391;51.052;6.954;2023-06-10T10:01:56;100812.75;;;28.57;37.90
818;BME280;391;51.052;6.954;2023-06-10T10:04:00;100815.38;;;28.59;38.00
818;BME280;391;51.052;6.954;2023-06-10T10:06:04;100814.03;;;28.69;38.32
818;BME280;391;51.052;6.954;2023-06-10T10:08:08;100812.41;;;28.65;37.85
818;BME280;391;51.052;6.954;2023-06-10T10:10:12;100806.22;;;28.63;37.78
818;BME280;391;51.052;6.954;2023-06-10T10:12:17;100810.00;;;28.59;37.74
818;BME280;391;51.052;6.954;2023-06-10T10:14:22;100802.00;;;28.57;38.01
818;BME280;391;51.052;6.954;2023-06-10T10:16:37;100790.94;;;28.45;38.22
818;BME280;391;51.052;6.954;2023-06-10T10:18:46;100810.63;;;28.65;37.86
818;BME280;391;51.052;6.954;2023-06-10T10:20:53;100802.00;;;28.57;38.00
818;BME280;391;51.052;6.954;2023-06-10T10:22:58;100801.53;;;28.48;37.88
818;BME280;391;51.052;6.954;2023-06-10T10:25:07;100806.59;;;28.55;37.91
818;BME280;391;51.052;6.954;2023-06-10T10:27:18;100787.38;;;28.44;38.10
818;BME280;391;51.052;6.954;2023-06-10T10:29:25;100743.06;;;28.15;38.14
818;BME280;391;51.052;6.954;2023-06-10T10:31:34;100805.78;;;28.33;38.23
818;BME280;391;51.052;6.954;2023-06-10T10:33:44;100801.13;;;28.16;38.38
818;BME280;391;51.052;6.954;2023-06-10T10:35:49;100786.03;;;28.14;38.53
818;BME280;391;51.052;6.954;2023-06-10T10:37:54;100803.38;;;28.27;38.36
818;BME280;391;51.052;6.954;2023-06-10T10:39:58;100802.63;;;28.23;38.46
818;BME280;391;51.052;6.954;2023-06-10T10:42:03;100798.13;;;28.24;38.33
818;BME280;391;51.052;6.954;2023-06-10T10:44:12;100805.97;;;28.28;38.40
818;BME280;391;51.052;6.954;2023-06-10T10:46:17;100789.06;;;28.26;38.08
818;BME280;391;51.052;6.954;2023-06-10T10:48:20;100800.41;;;28.33;38.09
818;BME280;391;51.052;6.954;2023-06-10T10:50:28;100765.41;;;28.36;38.36
818;BME280;391;51.052;6.954;2023-06-10T10:52:52;100786.44;;;28.85;38.43
818;BME280;391;51.052;6.954;2023-06-10T10:54:57;100791.47;;;29.12;38.48
818;BME280;391;51.052;6.954;2023-06-10T10:57:17;100759.88;;;29.17;37.49
818;BME280;391;51.052;6.954;2023-06-10T10:59:21;100779.59;;;29.36;35.78
818;BME280;391;51.052;6.954;2023-06-10T11:01:39;100782.28;;;29.36;34.67
818;BME280;391;51.052;6.954;2023-06-10T11:03:44;100759.97;;;29.15;34.74
818;BME280;391;51.052;6.954;2023-06-10T11:05:49;100752.69;;;29.17;35.09
818;BME280;391;51.052;6.954;2023-06-10T11:07:54;100716.31;;;29.10;35.94
818;BME280;391;51.052;6.954;2023-06-10T11:09:59;100780.97;;;29.45;36.42
818;BME280;391;51.052;6.954;2023-06-10T11:12:05;100778.56;;;29.57;36.49
818;BME280;391;51.052;6.954;2023-06-10T11:14:09;100750.59;;;29.42;36.99
818;BME280;391;51.052;6.954;2023-06-10T11:16:19;100670.78;;;28.90;36.69
818;BME280;391;51.052;6.954;2023-06-10T11:18:25;100771.06;;;29.64;36.40
818;BME280;391;51.052;6.954;2023-06-10T11:20:52;100766.19;;;29.72;36.23
818;BME280;391;51.052;6.954;2023-06-10T11:23:01;100779.75;;;29.87;35.87
818;BME280;391;51.052;6.954;2023-06-10T11:25:13;100731.91;;;29.58;34.92
818;BME280;391;51.052;6.954;2023-06-10T11:27:18;100770.69;;;29.71;32.57
818;BME280;391;51.052;6.954;2023-06-10T11:29:21;100778.75;;;29.71;30.58